KGSB/GSB METAR and TAF weather

Enter ICAO airport designator
Station Type Date Time Source
KGSB METAR 2019/04/18 14:56 UTC NOAA

KGSB 181456Z AUTO 23013G19KT 10SM SCT032 24/15 A3007 RMK AO2 SLP185 T02370152 50005 $


Station Type Date Time Source
KGSB Decoded METAR 2019/04/18 14:56 UTC NOAA

Seymour-Johnson Air Force Base, NC, United States (KGSB) 35-20N 077-58W
Apr 18, 2019 - 10:56 AM EDT / 2019.04.18 1456 UTC
Wind: from the SW (230 degrees) at 15 MPH (13 KT) gusting to 22 MPH (19 KT):0
Visibility: 10 mile(s):0
Sky conditions: partly cloudy
Temperature: 74.7 F (23.7 C)
Dew Point: 59.4 F (15.2 C)
Relative Humidity: 58%
Pressure (altimeter): 30.07 in. Hg (1018 hPa)
Pressure tendency: 0.01 inches (0.5 hPa) higher than three hours ago
ob: KGSB 181456Z AUTO 23013G19KT 10SM SCT032 24/15 A3007 RMK AO2 SLP185 T02370152 50005
cycle: 15

Station Type Date Time Source
KGSB TAF 2019/04/18 12:27 UTC NOAA

TAF KGSB 181215Z 1812/1918 22006KT 9999 BKN170 QNH2995INS
BECMG 1816/1817 19015G25KT 9999 SCT050 QNH2993INS
BECMG 1823/1824 18012G18KT 9999 SCT030 QNH2993INS
BECMG 1902/1903 17012KT 9999 VCSH BKN030 BKN180 WS020/19035KT QNH2986INS
BECMG 1907/1908 17012G20KT 8000 -SHRA BKN015 BKN030 QNH2978INS
BECMG 1914/1915 18020G35KT 8000 -SHRA VCTS OVC030CB QNH2969INS TX26/1819Z TN16/1812Z

Example: see airport list